Meteo Bahía Blanca

ESTACION METEOROLOGICA ACBB

09/02/2023 02:37:53
TEMPERATURA SENSACION TERMICA PUNTO ROCIO

16.0 ºC

16.0 ºC

14.2 ºC

VIENTO DIRECCION VELOCIDAD RAFAGAS

140

0.0 KT

0.0 KT

PRESION HUMEDAD

1011.7 hPa

89 %

METAR SAZB

09 - 05:00METAR SAZB 090500Z 07008KT CAVOK 16/15 Q1011 RMK PP000 =

PREVISION VIENTOS